sensor_id;sensor_type;location;lat;lon;timestamp;temperature;humidity
17007;DHT22;8620;51.168;4.154;2024-02-14T07:38:05;11.50;99.90
17007;DHT22;8620;51.168;4.154;2024-02-14T07:40:31;11.40;99.90
17007;DHT22;8620;51.168;4.154;2024-02-14T07:43:04;11.30;99.90
17007;DHT22;8620;51.168;4.154;2024-02-14T07:45:32;11.20;99.90
17007;DHT22;8620;51.168;4.154;2024-02-14T07:47:59;11.30;99.90
17007;DHT22;8620;51.168;4.154;2024-02-14T07:50:26;11.30;99.90
17007;DHT22;8620;51.168;4.154;2024-02-14T07:52:54;11.30;99.90
17007;DHT22;8620;51.168;4.154;2024-02-14T07:55:20;11.40;99.90
17007;DHT22;8620;51.168;4.154;2024-02-14T07:57:47;11.50;99.90
17007;DHT22;8620;51.168;4.154;2024-02-14T08:00:13;11.40;99.90
17007;DHT22;8620;51.168;4.154;2024-02-14T08:02:44;11.40;99.90
17007;DHT22;8620;51.168;4.154;2024-02-14T08:05:10;11.30;99.90
17007;DHT22;8620;51.168;4.154;2024-02-14T08:07:36;11.40;99.90
17007;DHT22;8620;51.168;4.154;2024-02-14T08:10:02;11.50;99.90
17007;DHT22;8620;51.168;4.154;2024-02-14T08:12:30;11.30;99.90
17007;DHT22;8620;51.168;4.154;2024-02-14T08:14:59;11.50;99.90
17007;DHT22;8620;51.168;4.154;2024-02-14T08:17:30;11.50;99.90
17007;DHT22;8620;51.168;4.154;2024-02-14T08:19:56;11.60;99.90
17007;DHT22;8620;51.168;4.154;2024-02-14T08:22:22;11.70;99.90
17007;DHT22;8620;51.168;4.154;2024-02-14T08:24:48;11.70;99.90
17007;DHT22;8620;51.168;4.154;2024-02-14T08:27:13;11.80;99.90
17007;DHT22;8620;51.168;4.154;2024-02-14T08:29:39;11.60;99.90
17007;DHT22;8620;51.168;4.154;2024-02-14T08:32:05;11.80;99.90
17007;DHT22;8620;51.168;4.154;2024-02-14T08:34:31;11.90;99.90
17007;DHT22;8620;51.168;4.154;2024-02-14T08:36:57;11.80;99.90
17007;DHT22;8620;51.168;4.154;2024-02-14T08:39:23;11.70;99.90
17007;DHT22;8620;51.168;4.154;2024-02-14T08:41:49;11.60;99.90
17007;DHT22;8620;51.168;4.154;2024-02-14T08:44:15;11.70;99.90
17007;DHT22;8620;51.168;4.154;2024-02-14T08:46:41;11.90;99.90
17007;DHT22;8620;51.168;4.154;2024-02-14T08:49:15;12.10;99.90
17007;DHT22;8620;51.168;4.154;2024-02-14T08:51:41;11.90;99.90
17007;DHT22;8620;51.168;4.154;2024-02-14T08:54:09;11.80;99.90
17007;DHT22;8620;51.168;4.154;2024-02-14T08:56:36;11.80;99.90
17007;DHT22;8620;51.168;4.154;2024-02-14T08:59:03;12.00;99.90
17007;DHT22;8620;51.168;4.154;2024-02-14T09:01:30;11.80;99.90
17007;DHT22;8620;51.168;4.154;2024-02-14T09:03:59;12.10;99.90
17007;DHT22;8620;51.168;4.154;2024-02-14T09:06:25;12.10;99.90
17007;DHT22;8620;51.168;4.154;2024-02-14T09:08:52;12.10;99.90
17007;DHT22;8620;51.168;4.154;2024-02-14T09:11:18;11.90;99.90
17007;DHT22;8620;51.168;4.154;2024-02-14T09:13:45;12.00;99.90
17007;DHT22;8620;51.168;4.154;2024-02-14T09:16:13;12.00;99.90
17007;DHT22;8620;51.168;4.154;2024-02-14T09:18:41;11.90;99.90
17007;DHT22;8620;51.168;4.154;2024-02-14T09:21:07;12.00;99.90
17007;DHT22;8620;51.168;4.154;2024-02-14T09:23:33;12.00;99.90
17007;DHT22;8620;51.168;4.154;2024-02-14T09:25:59;12.10;99.90
17007;DHT22;8620;51.168;4.154;2024-02-14T09:28:25;12.10;99.90
17007;DHT22;8620;51.168;4.154;2024-02-14T09:30:51;12.10;99.90
17007;DHT22;8620;51.168;4.154;2024-02-14T09:33:50;12.00;99.90
17007;DHT22;8620;51.168;4.154;2024-02-14T09:36:24;12.00;99.90
17007;DHT22;8620;51.168;4.154;2024-02-14T09:38:59;11.90;99.90
17007;DHT22;8620;51.168;4.154;2024-02-14T09:44:51;12.20;99.90
17007;DHT22;8620;51.168;4.154;2024-02-14T09:47:19;12.10;99.90
17007;DHT22;8620;51.168;4.154;2024-02-14T09:49:57;12.10;99.90
17007;DHT22;8620;51.168;4.154;2024-02-14T09:52:25;12.30;99.90
17007;DHT22;8620;51.168;4.154;2024-02-14T09:55:09;12.30;99.90
17007;DHT22;8620;51.168;4.154;2024-02-14T10:00:45;12.30;99.90
17007;DHT22;8620;51.168;4.154;2024-02-14T10:03:14;12.30;99.90
17007;DHT22;8620;51.168;4.154;2024-02-14T10:05:51;12.30;99.90
17007;DHT22;8620;51.168;4.154;2024-02-14T10:08:37;12.50;99.90
17007;DHT22;8620;51.168;4.154;2024-02-14T10:11:06;12.40;99.90
17007;DHT22;8620;51.168;4.154;2024-02-14T10:14:08;12.40;99.90
17007;DHT22;8620;51.168;4.154;2024-02-14T10:17:16;12.50;99.90
17007;DHT22;8620;51.168;4.154;2024-02-14T10:20:00;12.50;99.90
17007;DHT22;8620;51.168;4.154;2024-02-14T10:33:28;11.80;99.90
17007;DHT22;8620;51.168;4.154;2024-02-14T10:36:05;12.00;99.90
17007;DHT22;8620;51.168;4.154;2024-02-14T10:38:54;12.00;99.90
17007;DHT22;8620;51.168;4.154;2024-02-14T10:41:34;12.20;99.90
17007;DHT22;8620;51.168;4.154;2024-02-14T10:44:26;12.30;99.90
17007;DHT22;8620;51.168;4.154;2024-02-14T10:47:24;12.30;99.90
17007;DHT22;8620;51.168;4.154;2024-02-14T10:50:11;12.40;99.90
17007;DHT22;8620;51.168;4.154;2024-02-14T10:53:00;12.60;99.90
17007;DHT22;8620;51.168;4.154;2024-02-14T10:55:50;12.30;99.90
17007;DHT22;8620;51.168;4.154;2024-02-14T10:58:27;12.10;99.90
17007;DHT22;8620;51.168;4.154;2024-02-14T11:00:58;12.30;99.90
17007;DHT22;8620;51.168;4.154;2024-02-14T11:03:30;12.20;99.90
17007;DHT22;8620;51.168;4.154;2024-02-14T11:06:05;12.30;99.90
17007;DHT22;8620;51.168;4.154;2024-02-14T11:08:31;12.30;99.90
17007;DHT22;8620;51.168;4.154;2024-02-14T11:11:00;12.40;99.90
17007;DHT22;8620;51.168;4.154;2024-02-14T11:13:28;12.40;99.90
17007;DHT22;8620;51.168;4.154;2024-02-14T11:16:20;12.50;99.90
17007;DHT22;8620;51.168;4.154;2024-02-14T11:18:54;12.30;99.90
17007;DHT22;8620;51.168;4.154;2024-02-14T11:21:39;12.30;99.90
17007;DHT22;8620;51.168;4.154;2024-02-14T11:24:28;12.50;99.90
17007;DHT22;8620;51.168;4.154;2024-02-14T11:27:20;12.40;99.90
17007;DHT22;8620;51.168;4.154;2024-02-14T11:30:35;12.50;99.90
17007;DHT22;8620;51.168;4.154;2024-02-14T11:33:45;12.50;99.90
17007;DHT22;8620;51.168;4.154;2024-02-14T11:36:51;12.50;99.90
17007;DHT22;8620;51.168;4.154;2024-02-14T11:39:20;12.70;99.90
17007;DHT22;8620;51.168;4.154;2024-02-14T11:42:21;12.70;99.90
17007;DHT22;8620;51.168;4.154;2024-02-14T11:48:46;12.90;99.90
17007;DHT22;8620;51.168;4.154;2024-02-14T11:51:37;12.90;99.90
17007;DHT22;8620;51.168;4.154;2024-02-14T11:54:38;13.00;99.90
17007;DHT22;8620;51.168;4.154;2024-02-14T11:57:04;13.00;99.90
17007;DHT22;8620;51.168;4.154;2024-02-14T11:59:30;12.90;99.90
17007;DHT22;8620;51.168;4.154;2024-02-14T12:02:25;13.00;99.90
17007;DHT22;8620;51.168;4.154;2024-02-14T12:04:54;13.00;99.90
17007;DHT22;8620;51.168;4.154;2024-02-14T12:07:37;13.00;99.90
17007;DHT22;8620;51.168;4.154;2024-02-14T12:10:28;13.10;99.90
17007;DHT22;8620;51.168;4.154;2024-02-14T12:13:17;13.30;99.90
17007;DHT22;8620;51.168;4.154;2024-02-14T12:16:07;13.60;99.90
17007;DHT22;8620;51.168;4.154;2024-02-14T12:18:38;13.50;99.90
17007;DHT22;8620;51.168;4.154;2024-02-14T12:21:13;13.50;99.90
17007;DHT22;8620;51.168;4.154;2024-02-14T12:24:00;13.50;99.90
17007;DHT22;8620;51.168;4.154;2024-02-14T12:26:30;13.70;99.90
17007;DHT22;8620;51.168;4.154;2024-02-14T12:29:07;13.80;99.90
17007;DHT22;8620;51.168;4.154;2024-02-14T12:31:34;13.70;99.90
17007;DHT22;8620;51.168;4.154;2024-02-14T12:34:03;13.60;99.90
17007;DHT22;8620;51.168;4.154;2024-02-14T12:37:05;13.40;99.90
17007;DHT22;8620;51.168;4.154;2024-02-14T12:40:10;13.50;99.90
17007;DHT22;8620;51.168;4.154;2024-02-14T12:43:11;13.50;99.90
17007;DHT22;8620;51.168;4.154;2024-02-14T12:45:58;13.60;99.90
17007;DHT22;8620;51.168;4.154;2024-02-14T12:48:47;13.60;99.90
17007;DHT22;8620;51.168;4.154;2024-02-14T12:51:38;13.80;99.90
17007;DHT22;8620;51.168;4.154;2024-02-14T12:54:17;14.00;99.90
17007;DHT22;8620;51.168;4.154;2024-02-14T12:56:48;13.80;99.90
17007;DHT22;8620;51.168;4.154;2024-02-14T12:59:57;13.80;99.90
17007;DHT22;8620;51.168;4.154;2024-02-14T13:02:49;13.50;99.90
17007;DHT22;8620;51.168;4.154;2024-02-14T13:05:43;13.80;99.90
17007;DHT22;8620;51.168;4.154;2024-02-14T13:08:32;14.10;99.90
17007;DHT22;8620;51.168;4.154;2024-02-14T13:11:21;14.40;99.90
17007;DHT22;8620;51.168;4.154;2024-02-14T13:14:25;14.20;99.90
17007;DHT22;8620;51.168;4.154;2024-02-14T13:17:19;13.90;99.90
17007;DHT22;8620;51.168;4.154;2024-02-14T13:19:54;14.00;99.90
17007;DHT22;8620;51.168;4.154;2024-02-14T13:22:32;13.90;99.90
17007;DHT22;8620;51.168;4.154;2024-02-14T13:25:24;13.80;99.90
17007;DHT22;8620;51.168;4.154;2024-02-14T13:28:01;13.80;99.90
17007;DHT22;8620;51.168;4.154;2024-02-14T13:31:00;13.90;99.90
17007;DHT22;8620;51.168;4.154;2024-02-14T13:33:29;13.80;99.90
17007;DHT22;8620;51.168;4.154;2024-02-14T13:36:00;13.60;99.90
17007;DHT22;8620;51.168;4.154;2024-02-14T13:38:28;13.80;99.90
17007;DHT22;8620;51.168;4.154;2024-02-14T13:41:19;14.10;99.90
17007;DHT22;8620;51.168;4.154;2024-02-14T13:44:14;13.90;99.90
17007;DHT22;8620;51.168;4.154;2024-02-14T13:47:03;13.90;99.90
17007;DHT22;8620;51.168;4.154;2024-02-14T13:50:04;13.80;99.90
17007;DHT22;8620;51.168;4.154;2024-02-14T13:53:08;13.50;99.90
17007;DHT22;8620;51.168;4.154;2024-02-14T13:56:09;13.50;99.90
17007;DHT22;8620;51.168;4.154;2024-02-14T13:59:12;13.40;99.90
17007;DHT22;8620;51.168;4.154;2024-02-14T14:01:38;13.50;99.90
17007;DHT22;8620;51.168;4.154;2024-02-14T14:04:04;13.50;99.90
17007;DHT22;8620;51.168;4.154;2024-02-14T14:06:31;13.70;99.90
17007;DHT22;8620;51.168;4.154;2024-02-14T14:09:01;13.70;99.90
17007;DHT22;8620;51.168;4.154;2024-02-14T14:11:28;13.40;99.90
17007;DHT22;8620;51.168;4.154;2024-02-14T14:14:04;13.30;99.90
17007;DHT22;8620;51.168;4.154;2024-02-14T14:17:08;13.40;99.90
17007;DHT22;8620;51.168;4.154;2024-02-14T14:19:59;13.40;99.90
17007;DHT22;8620;51.168;4.154;2024-02-14T14:22:58;13.90;99.90
17007;DHT22;8620;51.168;4.154;2024-02-14T14:26:10;13.80;99.90
17007;DHT22;8620;51.168;4.154;2024-02-14T14:28:55;13.90;99.90
17007;DHT22;8620;51.168;4.154;2024-02-14T14:31:39;13.80;99.90
17007;DHT22;8620;51.168;4.154;2024-02-14T14:34:22;13.80;99.90
17007;DHT22;8620;51.168;4.154;2024-02-14T14:37:06;13.90;99.90
17007;DHT22;8620;51.168;4.154;2024-02-14T14:39:37;13.90;99.90
17007;DHT22;8620;51.168;4.154;2024-02-14T14:42:03;13.80;99.90
17007;DHT22;8620;51.168;4.154;2024-02-14T14:45:10;14.10;99.90
17007;DHT22;8620;51.168;4.154;2024-02-14T14:47:35;14.10;99.90
17007;DHT22;8620;51.168;4.154;2024-02-14T14:50:33;14.30;99.90
17007;DHT22;8620;51.168;4.154;2024-02-14T14:53:00;13.90;99.90
17007;DHT22;8620;51.168;4.154;2024-02-14T14:56:01;13.50;99.90
17007;DHT22;8620;51.168;4.154;2024-02-14T14:58:34;13.40;99.90
17007;DHT22;8620;51.168;4.154;2024-02-14T15:01:01;13.60;99.90
17007;DHT22;8620;51.168;4.154;2024-02-14T15:03:29;13.70;99.90
17007;DHT22;8620;51.168;4.154;2024-02-14T15:05:55;13.90;99.90
17007;DHT22;8620;51.168;4.154;2024-02-14T15:08:22;13.90;99.90
17007;DHT22;8620;51.168;4.154;2024-02-14T15:10:53;14.00;99.90
17007;DHT22;8620;51.168;4.154;2024-02-14T15:13:28;14.20;99.90
17007;DHT22;8620;51.168;4.154;2024-02-14T15:15:54;14.30;99.90
17007;DHT22;8620;51.168;4.154;2024-02-14T15:18:19;14.20;99.90
17007;DHT22;8620;51.168;4.154;2024-02-14T15:20:45;14.20;99.90
17007;DHT22;8620;51.168;4.154;2024-02-14T15:23:11;14.10;99.90
17007;DHT22;8620;51.168;4.154;2024-02-14T15:25:37;14.30;99.90
17007;DHT22;8620;51.168;4.154;2024-02-14T15:28:10;14.30;99.90
17007;DHT22;8620;51.168;4.154;2024-02-14T15:30:40;14.30;99.90
17007;DHT22;8620;51.168;4.154;2024-02-14T15:33:31;14.20;99.90
17007;DHT22;8620;51.168;4.154;2024-02-14T15:36:03;14.10;99.90
17007;DHT22;8620;51.168;4.154;2024-02-14T15:38:47;14.30;99.90
17007;DHT22;8620;51.168;4.154;2024-02-14T15:41:13;14.40;99.90
17007;DHT22;8620;51.168;4.154;2024-02-14T15:44:15;14.40;99.90
17007;DHT22;8620;51.168;4.154;2024-02-14T15:47:18;14.40;99.90
17007;DHT22;8620;51.168;4.154;2024-02-14T15:49:46;14.20;99.90
17007;DHT22;8620;51.168;4.154;2024-02-14T15:52:28;14.40;99.90
17007;DHT22;8620;51.168;4.154;2024-02-14T15:58:18;14.70;99.90
17007;DHT22;8620;51.168;4.154;2024-02-14T16:00:46;14.40;99.90
17007;DHT22;8620;51.168;4.154;2024-02-14T16:03:30;14.40;99.90
17007;DHT22;8620;51.168;4.154;2024-02-14T16:09:44;14.30;99.90
17007;DHT22;8620;51.168;4.154;2024-02-14T16:12:46;14.20;99.90
17007;DHT22;8620;51.168;4.154;2024-02-14T16:15:32;14.10;99.90
17007;DHT22;8620;51.168;4.154;2024-02-14T16:21:20;14.00;99.90
17007;DHT22;8620;51.168;4.154;2024-02-14T16:23:50;13.90;99.90
17007;DHT22;8620;51.168;4.154;2024-02-14T16:26:16;14.10;99.90
17007;DHT22;8620;51.168;4.154;2024-02-14T16:28:47;14.10;99.90
17007;DHT22;8620;51.168;4.154;2024-02-14T16:31:13;14.00;99.90
17007;DHT22;8620;51.168;4.154;2024-02-14T16:33:39;14.10;99.90
17007;DHT22;8620;51.168;4.154;2024-02-14T16:36:06;14.00;99.90
17007;DHT22;8620;51.168;4.154;2024-02-14T16:38:32;14.10;99.90
17007;DHT22;8620;51.168;4.154;2024-02-14T16:42:13;14.20;99.90
17007;DHT22;8620;51.168;4.154;2024-02-14T16:44:43;14.20;99.90
17007;DHT22;8620;51.168;4.154;2024-02-14T16:47:11;14.20;99.90
17007;DHT22;8620;51.168;4.154;2024-02-14T16:49:38;14.10;99.90
17007;DHT22;8620;51.168;4.154;2024-02-14T16:52:05;14.20;99.90
17007;DHT22;8620;51.168;4.154;2024-02-14T16:54:35;14.20;99.90
17007;DHT22;8620;51.168;4.154;2024-02-14T16:57:04;14.30;99.90
17007;DHT22;8620;51.168;4.154;2024-02-14T16:59:46;14.60;99.90
17007;DHT22;8620;51.168;4.154;2024-02-14T17:02:18;14.30;99.90
17007;DHT22;8620;51.168;4.154;2024-02-14T17:05:07;14.50;99.90
17007;DHT22;8620;51.168;4.154;2024-02-14T17:07:38;14.70;99.90
17007;DHT22;8620;51.168;4.154;2024-02-14T17:10:07;14.60;99.90
17007;DHT22;8620;51.168;4.154;2024-02-14T17:12:37;14.30;99.90
17007;DHT22;8620;51.168;4.154;2024-02-14T17:15:03;14.10;99.90
17007;DHT22;8620;51.168;4.154;2024-02-14T17:17:34;14.20;99.90
17007;DHT22;8620;51.168;4.154;2024-02-14T17:20:38;14.50;99.90
17007;DHT22;8620;51.168;4.154;2024-02-14T17:23:10;14.70;99.90
17007;DHT22;8620;51.168;4.154;2024-02-14T17:25:39;14.60;99.90
17007;DHT22;8620;51.168;4.154;2024-02-14T17:28:09;14.30;99.90
17007;DHT22;8620;51.168;4.154;2024-02-14T17:30:40;14.30;99.90
17007;DHT22;8620;51.168;4.154;2024-02-14T17:33:26;14.30;99.90
17007;DHT22;8620;51.168;4.154;2024-02-14T17:35:54;14.20;99.90
17007;DHT22;8620;51.168;4.154;2024-02-14T17:38:21;14.20;99.90
17007;DHT22;8620;51.168;4.154;2024-02-14T17:40:48;14.40;99.90
17007;DHT22;8620;51.168;4.154;2024-02-14T17:43:14;14.40;99.90
17007;DHT22;8620;51.168;4.154;2024-02-14T17:45:40;14.60;99.90
17007;DHT22;8620;51.168;4.154;2024-02-14T17:48:06;14.80;99.90
17007;DHT22;8620;51.168;4.154;2024-02-14T17:50:49;14.80;99.90
17007;DHT22;8620;51.168;4.154;2024-02-14T17:53:15;14.70;99.90
17007;DHT22;8620;51.168;4.154;2024-02-14T17:55:42;14.80;99.90
17007;DHT22;8620;51.168;4.154;2024-02-14T17:58:49;14.80;99.90
17007;DHT22;8620;51.168;4.154;2024-02-14T18:01:15;14.90;99.90
17007;DHT22;8620;51.168;4.154;2024-02-14T18:03:41;14.70;99.90
17007;DHT22;8620;51.168;4.154;2024-02-14T18:06:07;14.70;99.90
17007;DHT22;8620;51.168;4.154;2024-02-14T18:08:34;14.80;99.90
17007;DHT22;8620;51.168;4.154;2024-02-14T18:11:00;14.50;99.90
17007;DHT22;8620;51.168;4.154;2024-02-14T18:13:27;14.30;99.90
17007;DHT22;8620;51.168;4.154;2024-02-14T18:15:56;14.10;99.90
17007;DHT22;8620;51.168;4.154;2024-02-14T18:18:22;14.30;99.90
17007;DHT22;8620;51.168;4.154;2024-02-14T18:20:48;14.20;99.90
17007;DHT22;8620;51.168;4.154;2024-02-14T18:23:15;14.00;99.90
17007;DHT22;8620;51.168;4.154;2024-02-14T18:26:06;14.00;99.90
17007;DHT22;8620;51.168;4.154;2024-02-14T18:28:35;14.00;99.90
17007;DHT22;8620;51.168;4.154;2024-02-14T18:31:01;13.70;99.90
17007;DHT22;8620;51.168;4.154;2024-02-14T18:33:28;13.70;99.90
17007;DHT22;8620;51.168;4.154;2024-02-14T18:35:54;13.80;99.90
17007;DHT22;8620;51.168;4.154;2024-02-14T18:38:21;13.70;99.90
17007;DHT22;8620;51.168;4.154;2024-02-14T18:40:54;13.70;99.90
17007;DHT22;8620;51.168;4.154;2024-02-14T18:43:21;13.80;99.90
17007;DHT22;8620;51.168;4.154;2024-02-14T18:45:47;13.80;99.90
17007;DHT22;8620;51.168;4.154;2024-02-14T18:48:13;13.80;99.90
17007;DHT22;8620;51.168;4.154;2024-02-14T18:50:40;14.00;99.90
17007;DHT22;8620;51.168;4.154;2024-02-14T18:53:06;13.80;99.90
17007;DHT22;8620;51.168;4.154;2024-02-14T18:55:33;13.90;99.90
17007;DHT22;8620;51.168;4.154;2024-02-14T18:57:59;14.00;99.90
17007;DHT22;8620;51.168;4.154;2024-02-14T19:00:25;14.00;99.90
17007;DHT22;8620;51.168;4.154;2024-02-14T19:02:52;13.90;99.90
17007;DHT22;8620;51.168;4.154;2024-02-14T19:05:31;13.80;99.90
17007;DHT22;8620;51.168;4.154;2024-02-14T19:08:22;13.80;99.90
17007;DHT22;8620;51.168;4.154;2024-02-14T19:10:52;13.90;99.90
17007;DHT22;8620;51.168;4.154;2024-02-14T19:13:20;14.00;99.90
17007;DHT22;8620;51.168;4.154;2024-02-14T19:15:48;14.20;99.90
17007;DHT22;8620;51.168;4.154;2024-02-14T19:18:15;14.40;99.90
17007;DHT22;8620;51.168;4.154;2024-02-14T19:20:40;14.10;99.90
17007;DHT22;8620;51.168;4.154;2024-02-14T19:23:11;13.80;99.90
17007;DHT22;8620;51.168;4.154;2024-02-14T19:25:37;14.00;99.90
17007;DHT22;8620;51.168;4.154;2024-02-14T19:28:03;14.00;99.90
17007;DHT22;8620;51.168;4.154;2024-02-14T19:30:29;14.00;99.90
17007;DHT22;8620;51.168;4.154;2024-02-14T19:32:54;13.70;99.90
17007;DHT22;8620;51.168;4.154;2024-02-14T19:35:20;13.70;99.90
17007;DHT22;8620;51.168;4.154;2024-02-14T19:37:46;13.60;99.90
17007;DHT22;8620;51.168;4.154;2024-02-14T19:40:12;13.90;99.90
17007;DHT22;8620;51.168;4.154;2024-02-14T19:42:38;14.20;99.90
17007;DHT22;8620;51.168;4.154;2024-02-14T19:45:05;14.20;99.90
17007;DHT22;8620;51.168;4.154;2024-02-14T19:47:32;14.00;99.90
17007;DHT22;8620;51.168;4.154;2024-02-14T19:49:58;14.00;99.90
17007;DHT22;8620;51.168;4.154;2024-02-14T19:52:31;14.10;99.90
17007;DHT22;8620;51.168;4.154;2024-02-14T19:55:03;14.30;99.90
17007;DHT22;8620;51.168;4.154;2024-02-14T19:57:29;14.30;99.90
17007;DHT22;8620;51.168;4.154;2024-02-14T19:59:58;14.10;99.90
17007;DHT22;8620;51.168;4.154;2024-02-14T20:02:25;14.30;99.90
17007;DHT22;8620;51.168;4.154;2024-02-14T20:04:51;14.10;99.90
17007;DHT22;8620;51.168;4.154;2024-02-14T20:07:17;14.00;99.90
17007;DHT22;8620;51.168;4.154;2024-02-14T20:09:43;13.90;99.90
17007;DHT22;8620;51.168;4.154;2024-02-14T20:12:09;13.80;99.90
17007;DHT22;8620;51.168;4.154;2024-02-14T20:14:35;13.60;99.90
17007;DHT22;8620;51.168;4.154;2024-02-14T20:17:01;13.50;99.90
17007;DHT22;8620;51.168;4.154;2024-02-14T20:19:27;13.40;99.90
17007;DHT22;8620;51.168;4.154;2024-02-14T20:21:53;13.50;99.90
17007;DHT22;8620;51.168;4.154;2024-02-14T20:24:19;13.80;99.90
17007;DHT22;8620;51.168;4.154;2024-02-14T20:26:56;14.10;99.90
17007;DHT22;8620;51.168;4.154;2024-02-14T20:29:30;14.10;99.90
17007;DHT22;8620;51.168;4.154;2024-02-14T20:31:59;14.00;99.90
17007;DHT22;8620;51.168;4.154;2024-02-14T20:34:28;13.80;99.90
17007;DHT22;8620;51.168;4.154;2024-02-14T20:36:54;13.60;99.90
17007;DHT22;8620;51.168;4.154;2024-02-14T20:39:22;13.70;99.90
17007;DHT22;8620;51.168;4.154;2024-02-14T20:41:48;13.60;99.90
17007;DHT22;8620;51.168;4.154;2024-02-14T20:44:15;13.80;99.90
17007;DHT22;8620;51.168;4.154;2024-02-14T20:46:43;13.50;99.90
17007;DHT22;8620;51.168;4.154;2024-02-14T20:49:14;13.30;99.90
17007;DHT22;8620;51.168;4.154;2024-02-14T20:51:40;13.40;99.90
17007;DHT22;8620;51.168;4.154;2024-02-14T20:54:06;13.50;99.90
17007;DHT22;8620;51.168;4.154;2024-02-14T20:56:32;13.50;99.90
